Terminal Aerodrome Forecast
Issued by NWS

Home | Current Version | Previous Version | Text Only | Print | Product List | Glossary On
Versions: 1 2 3 4 5 6 7 8 9 10 11 12
000
FTUS45 KRIW 022320
TAFCOD
TAF
KCOD 022320Z 0300/0324 01010KT P6SM FEW100
     FM030400 21007KT P6SM SCT200
     FM031700 03007KT P6SM SCT110 BKN200
     FM032200 08008KT P6SM VCSH SCT090 BKN200
      AMD LTD TO CLD VIS AND WIND=

USA.gov is the U.S. government's official web portal to all federal, state and local government web resources and services.